Time;durP1;ratioP1;P1;durP2;ratioP2;P2;SDS_P1;SDS_P2;PMS_P1;PMS_P2;Temp;Humidity;BMP_temperature;BMP_pressure;BME280_temperature;BME280_humidity;BME280_pressure;Samples;Min_cycle;Max_cycle;Signal;HPM_P1;HPM_P2
2022/02/20 00:01:47;;;;;;;17.37;7.67;;;;;;;;;;5040883;28;20203;-69
2022/02/20 00:04:15;;;;;;;17.20;8.03;;;;;;;;;;5040862;28;20211;-69
2022/02/20 00:06:45;;;;;;;14.33;6.97;;;;;;;;;;5040463;28;20266;-69
2022/02/20 00:09:13;;;;;;;12.20;5.70;;;;;;;;;;5040785;28;20215;-69
2022/02/20 00:11:41;;;;;;;9.67;3.80;;;;;;;;;;5040391;28;20734;-69
2022/02/20 00:14:09;;;;;;;7.87;4.60;;;;;;;;;;5040606;28;20235;-70
2022/02/20 00:16:37;;;;;;;26.23;11.30;;;;;;;;;;5040435;28;20632;-69
2022/02/20 00:19:05;;;;;;;27.93;11.77;;;;;;;;;;5040747;28;20235;-70
2022/02/20 00:21:33;;;;;;;17.50;7.47;;;;;;;;;;5040226;28;20291;-70
2022/02/20 00:24:03;;;;;;;28.57;13.40;;;;;;;;;;5040440;28;20218;-70
2022/02/20 00:26:31;;;;;;;122.37;51.10;;;;;;;;;;5040377;28;20231;-69
2022/02/20 00:28:59;;;;;;;35.40;17.93;;;;;;;;;;5040407;28;20211;-69
2022/02/20 00:31:27;;;;;;;18.77;7.57;;;;;;;;;;5040553;28;20235;-69
2022/02/20 00:33:55;;;;;;;10.90;5.30;;;;;;;;;;5040359;28;20207;-69
2022/02/20 00:36:23;;;;;;;9.70;5.43;;;;;;;;;;5039641;28;20258;-70
2022/02/20 00:38:51;;;;;;;14.97;8.33;;;;;;;;;;5040018;28;20239;-70
2022/02/20 00:41:21;;;;;;;17.70;7.87;;;;;;;;;;5039571;28;20247;-70
2022/02/20 00:43:49;;;;;;;14.13;6.37;;;;;;;;;;5040180;28;20203;-69
2022/02/20 00:46:17;;;;;;;10.97;5.20;;;;;;;;;;5039851;28;20570;-70
2022/02/20 00:48:45;;;;;;;12.67;5.20;;;;;;;;;;5040006;28;20238;-70
2022/02/20 00:51:13;;;;;;;10.60;5.40;;;;;;;;;;5039661;28;20644;-70
2022/02/20 00:53:41;;;;;;;27.83;12.93;;;;;;;;;;5040002;28;20239;-69
2022/02/20 00:56:09;;;;;;;11.00;7.13;;;;;;;;;;5040142;28;20223;-69
2022/02/20 00:58:38;;;;;;;15.30;7.23;;;;;;;;;;5039921;28;20208;-69
2022/02/20 01:01:06;;;;;;;13.73;5.33;;;;;;;;;;5039828;28;20243;-69
2022/02/20 01:03:35;;;;;;;10.80;5.60;;;;;;;;;;5039750;28;20203;-69
2022/02/20 01:06:03;;;;;;;18.67;9.07;;;;;;;;;;5039614;28;20258;-69
2022/02/20 01:08:31;;;;;;;25.13;11.30;;;;;;;;;;5039649;28;20314;-69
2022/02/20 01:10:59;;;;;;;16.83;8.47;;;;;;;;;;5039447;28;20266;-69
2022/02/20 01:13:27;;;;;;;13.80;7.67;;;;;;;;;;5039377;28;20242;-69
2022/02/20 01:15:56;;;;;;;13.80;6.53;;;;;;;;;;5039469;28;20223;-69
2022/02/20 01:18:24;;;;;;;11.67;6.70;;;;;;;;;;5039450;28;20204;-69
2022/02/20 01:20:52;;;;;;;12.73;7.70;;;;;;;;;;5039351;28;20247;-69
2022/02/20 01:23:20;;;;;;;10.97;5.70;;;;;;;;;;5039379;28;20242;-69
2022/02/20 01:25:49;;;;;;;14.67;7.03;;;;;;;;;;5039211;28;20233;-69
2022/02/20 01:28:17;;;;;;;8.87;5.60;;;;;;;;;;5039105;28;20270;-69
2022/02/20 01:30:45;;;;;;;13.23;5.70;;;;;;;;;;5039502;28;20294;-69
2022/02/20 01:33:17;;;;;;;9.03;5.27;;;;;;;;;;5026338;28;20234;-69
2022/02/20 01:35:45;;;;;;;11.07;5.53;;;;;;;;;;5038114;28;20765;-69
2022/02/20 01:38:15;;;;;;;9.33;5.50;;;;;;;;;;5038950;28;20204;-70
2022/02/20 01:40:43;;;;;;;9.03;5.13;;;;;;;;;;5039144;28;20204;-70
2022/02/20 01:43:12;;;;;;;10.07;4.97;;;;;;;;;;5039011;28;20208;-70
2022/02/20 01:45:41;;;;;;;11.13;6.33;;;;;;;;;;5038694;28;20239;-70
2022/02/20 01:48:09;;;;;;;14.67;8.40;;;;;;;;;;5038797;28;20255;-71
2022/02/20 01:50:38;;;;;;;17.77;8.23;;;;;;;;;;5038491;28;20290;-70
2022/02/20 01:53:07;;;;;;;15.27;7.47;;;;;;;;;;5038795;28;20246;-70
2022/02/20 01:55:35;;;;;;;18.83;8.97;;;;;;;;;;5038814;28;20223;-70
2022/02/20 01:58:03;;;;;;;13.53;6.43;;;;;;;;;;5038730;28;20235;-70
2022/02/20 02:00:31;;;;;;;10.90;5.70;;;;;;;;;;5038778;28;20211;-70
2022/02/20 02:02:59;;;;;;;11.83;5.17;;;;;;;;;;5038644;28;20207;-70
2022/02/20 02:05:27;;;;;;;10.40;5.07;;;;;;;;;;5038297;28;20259;-70
2022/02/20 02:07:57;;;;;;;10.77;4.93;;;;;;;;;;5038398;28;20269;-70
2022/02/20 02:10:25;;;;;;;9.77;5.73;;;;;;;;;;5038342;28;20278;-71
2022/02/20 02:12:53;;;;;;;12.37;5.37;;;;;;;;;;5038427;28;20242;-70
2022/02/20 02:15:21;;;;;;;19.63;8.63;;;;;;;;;;5038468;28;20259;-70
2022/02/20 02:17:49;;;;;;;11.43;7.90;;;;;;;;;;5038195;28;20617;-71
2022/02/20 02:20:17;;;;;;;12.27;6.27;;;;;;;;;;5038037;28;20261;-70
2022/02/20 02:22:47;;;;;;;13.10;6.67;;;;;;;;;;5038292;28;20208;-70
2022/02/20 02:25:15;;;;;;;16.80;6.20;;;;;;;;;;5037994;28;20658;-70
2022/02/20 02:27:43;;;;;;;15.27;6.40;;;;;;;;;;5038268;28;20238;-70
2022/02/20 02:30:11;;;;;;;15.27;7.17;;;;;;;;;;5038252;28;20294;-70
2022/02/20 02:32:39;;;;;;;18.73;7.07;;;;;;;;;;5037916;28;20235;-70
2022/02/20 02:35:08;;;;;;;8.53;4.77;;;;;;;;;;5038024;28;20239;-71
2022/02/20 02:37:36;;;;;;;17.23;8.93;;;;;;;;;;5037852;28;20203;-70
2022/02/20 02:40:06;;;;;;;14.10;6.97;;;;;;;;;;5038280;28;20279;-70
2022/02/20 02:42:34;;;;;;;14.40;7.53;;;;;;;;;;5038119;28;20211;-71
2022/02/20 02:45:02;;;;;;;21.17;9.83;;;;;;;;;;5037664;28;20698;-71
2022/02/20 02:47:31;;;;;;;29.20;11.60;;;;;;;;;;5037987;28;20245;-70
2022/02/20 02:49:59;;;;;;;9.23;4.70;;;;;;;;;;5037837;28;20243;-70
2022/02/20 02:52:27;;;;;;;11.37;4.93;;;;;;;;;;5037625;28;20691;-70
2022/02/20 02:54:55;;;;;;;9.73;5.07;;;;;;;;;;5037841;28;20239;-70
2022/02/20 02:57:25;;;;;;;8.53;4.87;;;;;;;;;;5037894;28;20218;-70
2022/02/20 02:59:53;;;;;;;19.03;6.90;;;;;;;;;;5037895;28;20239;-70
2022/02/20 03:02:21;;;;;;;24.37;11.30;;;;;;;;;;5037430;28;20446;-70
2022/02/20 03:04:49;;;;;;;16.80;8.57;;;;;;;;;;5037617;28;20203;-70
2022/02/20 03:07:17;;;;;;;14.63;7.00;;;;;;;;;;5037698;28;20239;-70
2022/02/20 03:09:45;;;;;;;12.77;5.23;;;;;;;;;;5037157;28;20270;-70
2022/02/20 03:12:13;;;;;;;31.00;11.57;;;;;;;;;;5037712;28;20239;-71
2022/02/20 03:14:43;;;;;;;12.63;6.27;;;;;;;;;;5037361;28;20207;-70
2022/02/20 03:17:11;;;;;;;12.07;4.80;;;;;;;;;;5037332;28;20764;-70
2022/02/20 03:19:39;;;;;;;12.67;5.30;;;;;;;;;;5037168;28;20721;-70
2022/02/20 03:22:07;;;;;;;7.50;5.00;;;;;;;;;;5037626;28;20295;-70
2022/02/20 03:24:35;;;;;;;9.17;4.37;;;;;;;;;;5037275;28;20686;-70
2022/02/20 03:27:03;;;;;;;10.67;4.13;;;;;;;;;;5037531;28;20273;-70
2022/02/20 03:29:31;;;;;;;10.77;5.73;;;;;;;;;;5037374;28;20235;-70
2022/02/20 03:32:01;;;;;;;11.40;6.27;;;;;;;;;;5037578;28;20238;-70
2022/02/20 03:34:29;;;;;;;10.37;5.93;;;;;;;;;;5037254;28;20266;-70
2022/02/20 03:36:57;;;;;;;9.97;4.87;;;;;;;;;;5035839;28;20227;-71
2022/02/20 03:39:25;;;;;;;8.73;4.50;;;;;;;;;;5037193;28;20238;-70
2022/02/20 03:41:53;;;;;;;8.13;4.93;;;;;;;;;;5037388;28;20212;-70
2022/02/20 03:44:21;;;;;;;16.20;9.93;;;;;;;;;;5037296;28;20242;-70
2022/02/20 03:46:49;;;;;;;13.60;8.03;;;;;;;;;;5037318;28;20231;-70
2022/02/20 03:49:18;;;;;;;7.57;4.80;;;;;;;;;;5037423;28;20258;-70
2022/02/20 03:51:46;;;;;;;9.30;5.60;;;;;;;;;;5037353;28;20295;-70
2022/02/20 03:54:14;;;;;;;11.30;5.00;;;;;;;;;;5037223;28;20242;-70
2022/02/20 03:56:42;;;;;;;10.90;5.23;;;;;;;;;;5037090;28;20262;-70
2022/02/20 03:59:10;;;;;;;15.57;10.47;;;;;;;;;;5036975;28;20243;-70
2022/02/20 04:01:38;;;;;;;12.70;5.93;;;;;;;;;;5037107;28;20239;-70
2022/02/20 04:04:06;;;;;;;10.10;4.60;;;;;;;;;;5037672;28;20208;-70
2022/02/20 04:06:36;;;;;;;13.13;5.80;;;;;;;;;;5036798;28;20306;-70
2022/02/20 04:09:04;;;;;;;17.43;9.80;;;;;;;;;;5036804;28;20664;-70
2022/02/20 04:11:32;;;;;;;9.37;4.50;;;;;;;;;;5036662;28;20275;-70
2022/02/20 04:14:00;;;;;;;7.70;3.70;;;;;;;;;;5038016;28;20216;-70
2022/02/20 04:16:28;;;;;;;7.37;3.37;;;;;;;;;;5040535;28;20737;-70
2022/02/20 04:18:56;;;;;;;6.70;3.87;;;;;;;;;;5040682;28;20235;-70
2022/02/20 04:21:24;;;;;;;8.03;3.97;;;;;;;;;;5040638;28;20239;-70
2022/02/20 04:23:54;;;;;;;10.83;4.00;;;;;;;;;;5040671;28;20216;-70
2022/02/20 04:26:22;;;;;;;9.23;4.20;;;;;;;;;;5040679;28;20269;-70
2022/02/20 04:28:50;;;;;;;16.83;6.67;;;;;;;;;;5040639;28;20263;-71
2022/02/20 04:31:18;;;;;;;12.43;5.80;;;;;;;;;;5040193;28;20246;-71
2022/02/20 04:33:46;;;;;;;8.63;4.80;;;;;;;;;;5040629;28;20242;-70
2022/02/20 04:36:14;;;;;;;8.17;4.23;;;;;;;;;;5039565;28;20266;-71
2022/02/20 04:38:42;;;;;;;14.37;7.00;;;;;;;;;;5028573;28;20200;-71
2022/02/20 04:41:12;;;;;;;9.87;6.17;;;;;;;;;;5020385;28;20211;-71
2022/02/20 04:43:40;;;;;;;11.80;5.77;;;;;;;;;;5020710;28;20240;-70
2022/02/20 04:46:08;;;;;;;8.37;4.53;;;;;;;;;;5020087;28;20232;-70
2022/02/20 04:48:36;;;;;;;8.00;4.17;;;;;;;;;;5020389;28;20240;-70
2022/02/20 04:51:04;;;;;;;5.13;3.43;;;;;;;;;;5026999;28;20207;-70
2022/02/20 04:53:32;;;;;;;9.03;5.47;;;;;;;;;;5040100;28;20212;-70
2022/02/20 04:56:00;;;;;;;10.93;5.50;;;;;;;;;;5040073;28;20267;-70
2022/02/20 04:58:29;;;;;;;11.20;7.20;;;;;;;;;;5039735;28;20207;-70
2022/02/20 05:00:57;;;;;;;10.73;4.47;;;;;;;;;;5039778;28;20231;-70
2022/02/20 05:03:26;;;;;;;8.23;4.63;;;;;;;;;;5039808;28;20207;-70
2022/02/20 05:05:54;;;;;;;9.03;3.87;;;;;;;;;;5039715;28;20231;-71
2022/02/20 05:08:22;;;;;;;6.90;3.10;;;;;;;;;;5039567;28;20212;-70
2022/02/20 05:10:50;;;;;;;9.47;3.73;;;;;;;;;;5039618;28;20275;-70
2022/02/20 05:13:18;;;;;;;5.90;3.50;;;;;;;;;;5039797;28;20207;-70
2022/02/20 05:15:48;;;;;;;13.13;3.97;;;;;;;;;;5039292;28;20263;-70
2022/02/20 05:18:16;;;;;;;6.00;3.83;;;;;;;;;;5039316;28;20238;-70
2022/02/20 05:20:46;;;;;;;6.40;3.77;;;;;;;;;;5039129;28;20694;-71
2022/02/20 05:23:14;;;;;;;7.90;3.63;;;;;;;;;;5039208;28;20204;-70
2022/02/20 05:25:42;;;;;;;7.40;3.77;;;;;;;;;;5038786;28;20655;-71
2022/02/20 05:28:10;;;;;;;8.13;3.60;;;;;;;;;;5039200;28;20299;-70
2022/02/20 05:30:38;;;;;;;7.57;3.80;;;;;;;;;;5036665;28;20262;-70
2022/02/20 05:33:07;;;;;;;7.97;3.97;;;;;;;;;;5036299;28;20676;-70
2022/02/20 05:35:35;;;;;;;7.60;3.27;;;;;;;;;;5035965;28;20247;-70
2022/02/20 05:38:04;;;;;;;5.97;3.40;;;;;;;;;;5038177;28;20234;-70
2022/02/20 05:40:33;;;;;;;5.70;3.67;;;;;;;;;;5035996;28;20231;-70
2022/02/20 05:43:01;;;;;;;6.67;3.77;;;;;;;;;;5038351;28;20238;-70
2022/02/20 05:45:29;;;;;;;7.13;3.57;;;;;;;;;;5036111;28;20648;-70
2022/02/20 05:47:57;;;;;;;11.50;4.30;;;;;;;;;;5035972;28;20227;-70
2022/02/20 05:50:26;;;;;;;6.63;3.50;;;;;;;;;;5035570;28;20257;-70
2022/02/20 05:52:54;;;;;;;7.83;3.83;;;;;;;;;;5035677;28;20200;-70
2022/02/20 05:55:22;;;;;;;7.50;3.50;;;;;;;;;;5034102;28;20258;-70
2022/02/20 05:57:52;;;;;;;5.10;3.17;;;;;;;;;;5036117;28;20687;-70
2022/02/20 06:00:21;;;;;;;7.00;4.17;;;;;;;;;;5035455;28;20249;-71
2022/02/20 06:02:49;;;;;;;7.73;3.30;;;;;;;;;;5037270;28;20294;-70
2022/02/20 06:05:17;;;;;;;7.13;4.07;;;;;;;;;;5034072;28;20247;-70
2022/02/20 06:07:47;;;;;;;8.57;3.73;;;;;;;;;;5035268;28;20203;-70
2022/02/20 06:10:15;;;;;;;7.17;3.70;;;;;;;;;;5037434;28;20263;-70
2022/02/20 06:12:45;;;;;;;8.70;3.80;;;;;;;;;;5035123;28;20249;-70
2022/02/20 06:15:13;;;;;;;7.07;3.27;;;;;;;;;;5036909;28;20223;-70
2022/02/20 06:17:41;;;;;;;8.03;3.33;;;;;;;;;;5034334;28;20199;-70
2022/02/20 06:20:09;;;;;;;5.53;4.10;;;;;;;;;;5034916;28;20226;-70
2022/02/20 06:22:37;;;;;;;6.67;4.00;;;;;;;;;;5035434;28;20638;-70
2022/02/20 06:25:07;;;;;;;5.70;3.37;;;;;;;;;;5038045;28;20659;-70
2022/02/20 06:27:35;;;;;;;6.87;3.90;;;;;;;;;;5038262;28;20655;-71
2022/02/20 06:30:20;;;;;;;7.80;3.63;;;;;;;;;;5038160;28;20232;-71
2022/02/20 06:32:48;;;;;;;6.57;3.20;;;;;;;;;;5037838;28;20215;-71
2022/02/20 06:35:16;;;;;;;7.27;3.40;;;;;;;;;;5037736;28;20251;-70
2022/02/20 06:37:44;;;;;;;6.73;3.30;;;;;;;;;;5036327;28;20200;-70
2022/02/20 06:40:14;;;;;;;7.60;3.80;;;;;;;;;;5037672;28;20690;-70
2022/02/20 06:42:42;;;;;;;7.20;3.87;;;;;;;;;;5036705;28;20235;-70
2022/02/20 06:45:11;;;;;;;9.67;3.40;;;;;;;;;;5037601;28;20249;-70
2022/02/20 06:47:39;;;;;;;9.23;3.17;;;;;;;;;;5035100;28;20226;-71
2022/02/20 06:50:07;;;;;;;8.00;3.60;;;;;;;;;;5035845;28;20310;-70
2022/02/20 06:52:35;;;;;;;9.30;3.63;;;;;;;;;;5034243;28;20279;-70
2022/02/20 06:55:03;;;;;;;7.23;3.47;;;;;;;;;;5037154;28;20783;-70
2022/02/20 06:57:36;;;;;;;3.93;3.20;;;;;;;;;;5035308;28;20790;-70
2022/02/20 07:00:06;;;;;;;6.53;3.40;;;;;;;;;;5034442;28;20195;-70
2022/02/20 07:02:34;;;;;;;7.27;4.00;;;;;;;;;;5034436;28;20246;-70
2022/02/20 07:05:02;;;;;;;8.63;3.63;;;;;;;;;;5035969;28;20671;-70
2022/02/20 07:07:30;;;;;;;6.60;3.80;;;;;;;;;;5036448;28;20445;-70
2022/02/20 07:09:59;;;;;;;7.87;3.53;;;;;;;;;;5034329;28;20510;-70
2022/02/20 07:12:30;;;;;;;7.47;3.40;;;;;;;;;;5034788;28;20968;-70
2022/02/20 07:15:00;;;;;;;11.07;4.53;;;;;;;;;;5035238;28;20475;-70
2022/02/20 07:17:29;;;;;;;12.57;4.07;;;;;;;;;;5034833;28;20430;-70
2022/02/20 07:19:58;;;;;;;8.53;3.93;;;;;;;;;;5034709;28;20439;-70
2022/02/20 07:22:27;;;;;;;7.63;4.10;;;;;;;;;;5035381;28;20968;-70
2022/02/20 07:24:55;;;;;;;7.60;3.77;;;;;;;;;;5032496;28;20473;-70
2022/02/20 07:27:23;;;;;;;6.60;3.73;;;;;;;;;;5033108;28;20822;-71
2022/02/20 07:29:52;;;;;;;8.77;4.50;;;;;;;;;;5036357;28;20459;-71
2022/02/20 07:32:21;;;;;;;10.63;4.00;;;;;;;;;;5038119;28;20449;-71
2022/02/20 07:34:49;;;;;;;7.23;4.67;;;;;;;;;;5024761;28;20474;-71
2022/02/20 07:37:17;;;;;;;6.43;3.93;;;;;;;;;;5037749;28;20446;-71
2022/02/20 07:39:46;;;;;;;8.33;4.77;;;;;;;;;;5017562;28;20969;-70
2022/02/20 07:42:14;;;;;;;9.30;4.23;;;;;;;;;;5017695;28;20447;-71
2022/02/20 07:44:43;;;;;;;7.77;4.23;;;;;;;;;;5017684;28;20482;-71
2022/02/20 07:47:10;;;;;;;10.27;4.43;;;;;;;;;;5017551;28;20494;-72
2022/02/20 07:49:40;;;;;;;9.80;4.80;;;;;;;;;;5031388;28;20474;-72
2022/02/20 07:52:08;;;;;;;10.10;4.80;;;;;;;;;;5036950;28;20543;-72
2022/02/20 07:54:36;;;;;;;9.53;4.60;;;;;;;;;;5037808;28;20445;-71
2022/02/20 07:57:04;;;;;;;6.53;4.33;;;;;;;;;;5040112;28;20561;-72
2022/02/20 07:59:32;;;;;;;6.03;4.07;;;;;;;;;;5039434;28;20466;-71
2022/02/20 08:02:01;;;;;;;7.53;3.90;;;;;;;;;;5037852;28;20440;-72
2022/02/20 08:04:29;;;;;;;13.67;5.43;;;;;;;;;;5038373;28;20469;-71
2022/02/20 08:06:58;;;;;;;9.93;3.87;;;;;;;;;;5032998;28;21013;-71
2022/02/20 08:09:26;;;;;;;8.00;3.93;;;;;;;;;;5037762;28;20497;-71
2022/02/20 08:11:54;;;;;;;10.03;4.63;;;;;;;;;;5039507;28;20508;-72
2022/02/20 08:14:22;;;;;;;10.23;4.50;;;;;;;;;;5038405;28;21135;-71
2022/02/20 08:16:50;;;;;;;11.47;4.97;;;;;;;;;;5038428;28;20473;-71
2022/02/20 08:19:19;;;;;;;5.53;4.20;;;;;;;;;;5036819;28;21167;-72
2022/02/20 08:21:47;;;;;;;4.40;3.37;;;;;;;;;;5039943;28;20470;-72
2022/02/20 08:24:16;;;;;;;9.03;4.13;;;;;;;;;;5038911;28;20465;-72
2022/02/20 08:26:45;;;;;;;4.87;3.93;;;;;;;;;;5039842;28;20493;-72
2022/02/20 08:29:13;;;;;;;10.10;4.13;;;;;;;;;;5037906;28;20484;-72
2022/02/20 08:31:41;;;;;;;8.57;4.83;;;;;;;;;;5037547;28;20505;-71
2022/02/20 08:34:10;;;;;;;8.87;3.93;;;;;;;;;;5037403;28;20469;-71
2022/02/20 08:36:38;;;;;;;7.07;3.63;;;;;;;;;;5036281;28;20527;-72
2022/02/20 08:39:06;;;;;;;5.83;3.73;;;;;;;;;;5038650;28;20466;-71
2022/02/20 08:41:36;;;;;;;6.57;4.00;;;;;;;;;;5024020;28;20470;-71
2022/02/20 08:44:04;;;;;;;9.57;3.67;;;;;;;;;;5030764;28;20485;-71
2022/02/20 08:46:33;;;;;;;5.83;3.80;;;;;;;;;;5039123;28;20465;-71
2022/02/20 08:49:01;;;;;;;8.23;4.10;;;;;;;;;;5021257;28;20467;-70
2022/02/20 08:51:29;;;;;;;9.83;4.43;;;;;;;;;;5024516;28;20485;-71
2022/02/20 08:53:57;;;;;;;9.23;4.23;;;;;;;;;;5018881;28;20446;-70
2022/02/20 08:56:26;;;;;;;6.40;4.13;;;;;;;;;;5036855;28;20465;-71
2022/02/20 08:58:56;;;;;;;11.60;3.80;;;;;;;;;;5039612;28;20458;-71
2022/02/20 09:01:27;;;;;;;8.90;4.47;;;;;;;;;;5038334;28;20442;-69
2022/02/20 09:04:02;;;;;;;6.03;3.53;;;;;;;;;;5039599;28;20470;-71
2022/02/20 09:06:30;;;;;;;12.17;4.73;;;;;;;;;;5039071;28;20790;-71
2022/02/20 09:08:58;;;;;;;8.87;4.10;;;;;;;;;;5038494;28;20447;-71
2022/02/20 09:11:28;;;;;;;8.93;4.23;;;;;;;;;;5037781;28;20906;-71
2022/02/20 09:13:57;;;;;;;4.60;3.40;;;;;;;;;;5034992;28;20537;-72
2022/02/20 09:16:25;;;;;;;6.90;3.50;;;;;;;;;;5038996;28;20480;-71
2022/02/20 09:18:56;;;;;;;8.27;4.27;;;;;;;;;;5038480;28;20481;-71
2022/02/20 09:21:24;;;;;;;8.47;4.47;;;;;;;;;;5037364;28;20426;-72
2022/02/20 09:23:52;;;;;;;8.23;3.43;;;;;;;;;;5036125;28;20200;-71
2022/02/20 09:26:20;;;;;;;6.87;3.70;;;;;;;;;;5023629;28;20534;-71
2022/02/20 09:28:48;;;;;;;7.53;3.83;;;;;;;;;;5037800;28;20212;-71
2022/02/20 09:31:17;;;;;;;10.77;3.57;;;;;;;;;;5032707;28;20601;-71
2022/02/20 09:33:46;;;;;;;6.73;2.93;;;;;;;;;;5029079;28;20251;-71
2022/02/20 09:36:14;;;;;;;3.87;2.73;;;;;;;;;;5026196;28;20219;-71
2022/02/20 09:38:42;;;;;;;9.03;3.13;;;;;;;;;;5029164;28;20304;-71
2022/02/20 09:41:10;;;;;;;4.10;3.13;;;;;;;;;;5019115;28;20216;-72
2022/02/20 09:43:40;;;;;;;2.80;2.53;;;;;;;;;;5019592;28;20270;-71
2022/02/20 09:46:08;;;;;;;6.63;3.40;;;;;;;;;;5026735;28;20250;-71
2022/02/20 09:48:38;;;;;;;7.70;3.30;;;;;;;;;;5038674;28;20208;-72
2022/02/20 09:51:07;;;;;;;8.57;3.17;;;;;;;;;;5037100;28;20235;-72
2022/02/20 09:53:35;;;;;;;6.27;3.77;;;;;;;;;;5035175;28;20624;-72
2022/02/20 09:56:03;;;;;;;4.60;2.87;;;;;;;;;;5035884;28;20717;-72
2022/02/20 09:58:32;;;;;;;9.53;3.30;;;;;;;;;;5037652;28;20235;-70
2022/02/20 10:01:05;;;;;;;7.70;2.77;;;;;;;;;;5035959;28;20231;-71
2022/02/20 10:03:34;;;;;;;9.13;3.63;;;;;;;;;;5024475;28;20204;-72
2022/02/20 10:06:05;;;;;;;3.67;3.37;;;;;;;;;;5022648;28;20246;-71
2022/02/20 10:08:39;;;;;;;7.80;3.63;;;;;;;;;;5032922;28;20619;-71
2022/02/20 10:11:14;;;;;;;7.50;4.80;;;;;;;;;;5035847;28;20261;-71
2022/02/20 10:13:42;;;;;;;8.10;4.00;;;;;;;;;;5035361;28;20206;-71
2022/02/20 10:16:17;;;;;;;11.77;3.20;;;;;;;;;;5035602;28;20220;-71
2022/02/20 10:18:46;;;;;;;5.60;3.40;;;;;;;;;;5034914;28;20212;-71
2022/02/20 10:21:18;;;;;;;6.13;3.47;;;;;;;;;;5037226;28;20230;-71
2022/02/20 10:23:47;;;;;;;6.60;3.67;;;;;;;;;;5033250;28;20690;-71
2022/02/20 10:26:18;;;;;;;5.20;3.00;;;;;;;;;;5035538;28;20219;-72
2022/02/20 10:29:00;;;;;;;7.90;3.60;;;;;;;;;;5035807;28;20556;-71
2022/02/20 10:31:41;;;;;;;6.10;3.20;;;;;;;;;;5031685;28;20213;-71
2022/02/20 10:34:10;;;;;;;6.23;3.17;;;;;;;;;;5035358;28;20234;-71
2022/02/20 10:36:50;;;;;;;3.37;2.53;;;;;;;;;;5032629;28;20228;-69
2022/02/20 10:39:19;;;;;;;5.73;2.83;;;;;;;;;;5035093;28;20682;-71
2022/02/20 10:41:47;;;;;;;3.70;1.97;;;;;;;;;;5035830;28;20228;-70
2022/02/20 10:44:15;;;;;;;8.60;2.03;;;;;;;;;;5035130;28;20231;-71
2022/02/20 10:46:43;;;;;;;2.70;1.97;;;;;;;;;;5036880;28;20629;-71
2022/02/20 10:49:22;;;;;;;4.13;2.40;;;;;;;;;;5034536;28;20215;-71
2022/02/20 10:51:51;;;;;;;3.63;1.70;;;;;;;;;;5036931;28;20533;-71
2022/02/20 10:54:19;;;;;;;2.93;1.87;;;;;;;;;;5036804;28;20231;-70
2022/02/20 10:56:48;;;;;;;4.00;1.77;;;;;;;;;;5034804;28;20658;-70
2022/02/20 10:59:19;;;;;;;10.17;6.07;;;;;;;;;;5034131;28;20631;-70
2022/02/20 11:01:47;;;;;;;4.97;3.73;;;;;;;;;;5037105;28;20246;-71
2022/02/20 11:04:15;;;;;;;7.63;2.33;;;;;;;;;;5032016;28;20215;-70
2022/02/20 11:06:47;;;;;;;5.43;1.97;;;;;;;;;;5037123;28;20270;-71
2022/02/20 11:09:17;;;;;;;4.47;1.90;;;;;;;;;;5036633;28;20570;-70
2022/02/20 11:11:49;;;;;;;4.50;2.17;;;;;;;;;;5036208;28;20270;-70
2022/02/20 11:14:18;;;;;;;5.77;1.53;;;;;;;;;;5034894;28;20235;-70
2022/02/20 11:16:47;;;;;;;3.00;1.53;;;;;;;;;;5035457;28;20254;-71
2022/02/20 11:19:16;;;;;;;3.13;1.67;;;;;;;;;;5036003;28;20203;-71
2022/02/20 11:21:46;;;;;;;4.73;1.80;;;;;;;;;;5035138;28;20235;-70
2022/02/20 11:24:14;;;;;;;8.73;1.63;;;;;;;;;;5036790;28;20207;-69
2022/02/20 11:26:44;;;;;;;2.27;1.50;;;;;;;;;;5034563;28;20220;-69
2022/02/20 11:29:12;;;;;;;2.33;1.30;;;;;;;;;;5033729;28;20206;-71
2022/02/20 11:31:42;;;;;;;1.83;1.67;;;;;;;;;;5032305;28;20692;-71
2022/02/20 11:34:10;;;;;;;1.93;1.70;;;;;;;;;;5017228;28;20263;-70
2022/02/20 11:36:38;;;;;;;2.27;1.70;;;;;;;;;;5023723;28;20227;-70
2022/02/20 11:39:08;;;;;;;3.43;1.50;;;;;;;;;;5037361;28;20210;-69
2022/02/20 11:41:36;;;;;;;3.13;1.70;;;;;;;;;;5036814;28;20690;-70
2022/02/20 11:44:16;;;;;;;1.77;1.40;;;;;;;;;;5035435;28;20202;-70
2022/02/20 11:46:49;;;;;;;3.57;1.67;;;;;;;;;;5034180;28;20219;-71
2022/02/20 11:49:29;;;;;;;2.50;1.30;;;;;;;;;;5036212;28;20651;-71
2022/02/20 11:51:59;;;;;;;1.73;1.50;;;;;;;;;;5035048;28;20238;-71
2022/02/20 11:54:27;;;;;;;2.30;1.47;;;;;;;;;;5034021;28;20251;-72
2022/02/20 11:57:15;;;;;;;3.57;1.70;;;;;;;;;;5020905;28;20588;-70
2022/02/20 12:00:06;;;;;;;3.77;1.40;;;;;;;;;;5017134;28;20691;-69
2022/02/20 12:02:34;;;;;;;2.50;1.17;;;;;;;;;;5025882;28;20686;-69
2022/02/20 12:05:06;;;;;;;3.47;1.63;;;;;;;;;;5036359;28;20258;-72
2022/02/20 12:07:37;;;;;;;2.50;1.30;;;;;;;;;;5036718;28;20215;-71
2022/02/20 12:10:28;;;;;;;1.40;1.30;;;;;;;;;;5036042;28;20599;-72
2022/02/20 12:12:57;;;;;;;4.33;1.40;;;;;;;;;;5028443;28;20281;-70
2022/02/20 12:15:27;;;;;;;2.27;1.40;;;;;;;;;;5032412;28;20709;-70
2022/02/20 12:18:01;;;;;;;2.00;1.30;;;;;;;;;;5033757;28;20204;-70
2022/02/20 12:20:46;;;;;;;2.00;1.33;;;;;;;;;;5036320;28;20577;-72
2022/02/20 12:23:26;;;;;;;1.87;1.33;;;;;;;;;;5036972;28;20203;-69
2022/02/20 12:25:54;;;;;;;2.33;1.50;;;;;;;;;;5036732;28;20231;-69
2022/02/20 12:28:31;;;;;;;1.47;1.20;;;;;;;;;;5036948;28;20230;-72
2022/02/20 12:31:08;;;;;;;5.93;1.70;;;;;;;;;;5036550;28;20211;-69
2022/02/20 12:33:37;;;;;;;5.17;1.67;;;;;;;;;;5036653;28;20291;-67
2022/02/20 12:36:06;;;;;;;2.90;1.40;;;;;;;;;;5036427;28;20306;-70
2022/02/20 12:38:35;;;;;;;1.30;1.20;;;;;;;;;;5040003;28;20335;-71
2022/02/20 12:41:07;;;;;;;3.13;1.27;;;;;;;;;;5038168;28;20196;-72
2022/02/20 12:43:35;;;;;;;1.20;1.00;;;;;;;;;;5037958;28;20219;-72
2022/02/20 12:46:05;;;;;;;3.03;1.23;;;;;;;;;;5036451;28;20251;-70
2022/02/20 12:48:33;;;;;;;1.67;1.17;;;;;;;;;;5038966;28;20234;-70
2022/02/20 12:51:01;;;;;;;3.60;2.00;;;;;;;;;;5034300;28;20226;-71
2022/02/20 12:53:29;;;;;;;4.10;1.37;;;;;;;;;;5036034;28;20680;-71
2022/02/20 12:55:57;;;;;;;1.37;1.27;;;;;;;;;;5035869;28;20315;-69
2022/02/20 12:58:25;;;;;;;1.50;1.40;;;;;;;;;;5035850;28;20215;-70
2022/02/20 13:00:55;;;;;;;1.30;1.20;;;;;;;;;;5036132;28;20618;-71
2022/02/20 13:03:25;;;;;;;2.33;1.47;;;;;;;;;;5033860;28;20258;-70
2022/02/20 13:05:57;;;;;;;1.60;1.20;;;;;;;;;;5033985;28;20312;-72
2022/02/20 13:08:27;;;;;;;3.37;2.77;;;;;;;;;;5035928;28;20215;-70
2022/02/20 13:10:55;;;;;;;2.40;1.30;;;;;;;;;;5036236;28;20235;-73
2022/02/20 13:13:24;;;;;;;3.07;1.30;;;;;;;;;;5035402;28;20227;-72
2022/02/20 13:15:54;;;;;;;5.63;1.20;;;;;;;;;;5037926;28;20273;-71
2022/02/20 13:18:23;;;;;;;1.77;1.10;;;;;;;;;;5034629;28;20227;-70
2022/02/20 13:20:53;;;;;;;2.00;1.23;;;;;;;;;;5038086;28;20230;-69
2022/02/20 13:23:28;;;;;;;1.13;1.03;;;;;;;;;;5035988;28;20254;-71
2022/02/20 13:25:58;;;;;;;8.10;1.00;;;;;;;;;;5037044;28;20284;-71
2022/02/20 13:28:26;;;;;;;1.03;0.97;;;;;;;;;;5032938;28;20232;-71
2022/02/20 13:30:58;;;;;;;3.00;1.13;;;;;;;;;;5035869;28;20235;-70
2022/02/20 13:33:31;;;;;;;4.20;1.37;;;;;;;;;;5033057;28;20955;-70
2022/02/20 13:36:03;;;;;;;2.90;1.20;;;;;;;;;;5036788;28;21873;-69
2022/02/20 13:38:31;;;;;;;0.90;0.90;;;;;;;;;;5037891;28;20231;-69
2022/02/20 13:40:59;;;;;;;0.97;0.97;;;;;;;;;;5036028;28;20641;-69
2022/02/20 13:43:44;;;;;;;1.50;1.40;;;;;;;;;;5027524;28;20205;-69
2022/02/20 13:46:13;;;;;;;2.30;1.50;;;;;;;;;;5025985;28;20231;-70
2022/02/20 13:48:42;;;;;;;1.97;1.57;;;;;;;;;;5038566;28;20246;-70
2022/02/20 13:51:25;;;;;;;1.73;1.00;;;;;;;;;;5038719;28;20211;-69
2022/02/20 13:53:58;;;;;;;2.80;0.93;;;;;;;;;;5038535;28;20365;-70
2022/02/20 13:56:46;;;;;;;1.00;0.90;;;;;;;;;;5038681;28;20633;-70
2022/02/20 13:59:15;;;;;;;1.20;1.10;;;;;;;;;;5039254;28;20240;-71
2022/02/20 14:01:45;;;;;;;2.27;1.10;;;;;;;;;;5039308;28;20246;-70
2022/02/20 14:04:23;;;;;;;2.63;0.87;;;;;;;;;;5038229;28;20200;-70
2022/02/20 14:06:54;;;;;;;0.93;0.93;;;;;;;;;;5038422;28;20702;-70
2022/02/20 14:09:27;;;;;;;1.93;0.90;;;;;;;;;;5027862;28;20236;-70
2022/02/20 14:12:11;;;;;;;1.53;0.80;;;;;;;;;;5018721;28;20271;-70
2022/02/20 14:14:40;;;;;;;1.00;1.00;;;;;;;;;;5018711;28;20315;-69
2022/02/20 14:17:08;;;;;;;1.13;0.80;;;;;;;;;;5030676;28;20737;-69
2022/02/20 14:19:43;;;;;;;1.00;1.00;;;;;;;;;;5038509;28;20207;-70
2022/02/20 14:22:11;;;;;;;1.10;0.90;;;;;;;;;;5038382;28;20617;-71
2022/02/20 14:24:44;;;;;;;0.97;0.97;;;;;;;;;;5038331;28;20238;-71
2022/02/20 14:27:12;;;;;;;1.00;0.80;;;;;;;;;;5038279;28;20270;-71
2022/02/20 14:29:43;;;;;;;1.87;1.00;;;;;;;;;;5038627;28;20203;-71
2022/02/20 14:32:11;;;;;;;6.87;1.80;;;;;;;;;;5038571;28;20254;-70
2022/02/20 14:34:42;;;;;;;1.03;0.93;;;;;;;;;;5037835;28;20683;-70
2022/02/20 14:37:12;;;;;;;1.33;1.00;;;;;;;;;;5037839;28;20224;-71
2022/02/20 14:39:41;;;;;;;1.10;1.00;;;;;;;;;;5038052;28;20207;-71
2022/02/20 14:42:09;;;;;;;1.80;0.77;;;;;;;;;;5038750;28;20246;-70
2022/02/20 14:44:37;;;;;;;0.57;0.57;;;;;;;;;;5031431;28;20276;-71
2022/02/20 14:47:07;;;;;;;2.43;1.00;;;;;;;;;;5029654;28;20220;-71
2022/02/20 14:49:35;;;;;;;1.33;0.90;;;;;;;;;;5027401;28;20243;-71
2022/02/20 14:52:03;;;;;;;0.90;0.73;;;;;;;;;;5027760;28;20684;-71